FNLUFOOL

Guest
Details From FNLU - Luanda 4 De Fevereiro
To FOOL - Leon M Ba
Flight Number -
Tags Generated
Created
Modified
Stats Distance 606 nm / 1,123 km
Max Altitude 0 ft / 0 m
Waypoints 3
Social Downloads 1
Likes 0
Share VATSIM

Download

Looking for another format? Having issues loading an existing format? Contact us
Advertisement - Login to hide

Notes

Generated

Route

FNLU LV FOOL

ID Type Via Altitude Latitude Longitude Leg Dist Tot Dist Heading (true) Name
O FNLU APT - 0 ft / 0 m -8.85561˚ 13.22570˚ - 0 nm - LUANDA 4 DE FEVEREIRO
LV VOR - 0 ft / 0 m 0.47983˚ 9.40197˚ 605 nm 605 nm 338° / 338° LIBREVILLE VOR-DME
O FOOL APT - 0 ft / 0 m 0.47081˚ 9.40635˚ 0 nm 606 nm 154° / 154° -

Altitude Profile

Advertisement - Login to hide

Weather


0- 5 10 15 20 25 30 35+ Temperature / ° C

Clouds and Precipitation
Forecast for 2017-12-11 00:00 UTC. Updated an hour ago

Ground ~20,000 ft ~40,000 ft Winds

FNLU

Details ICAO FNLU (LAD)
Name LUANDA 4 DE FEVEREIRO
Region Angola
Timezone Africa/Luanda (UTC+1.0)
Stats Elevation 243 ft / 74 m (AMSL)
Location -8.858377° 13.231178°
Runways 2
Magnetic Variation 3.485° W

METAR

FNLU 110000Z 17005KT 9999 FEW020 BKN080 26/22 Q1010 NOSIG

Decode

TAF

TAF TAF FNLU 102245Z 1100/1206 22006KT 9000 FEW020 BKN030 TEMPO 1100/1104 VRB03KT FEW018 BKN022 BECMG 1110/1112 30008KT 9999 SCT023 TEMPO 1114/1118 26010KT 9999 FEW020 FEW023TCU BECMG 1122/1124 20008KT 9000 BKN020

Decode

Departure Runways

ID Width Length Bearing (true) Bearing (mag) Surface Threshold Offset Overrun Length
05 148 ft / 45 m 12,153 ft / 3,704 m 46.63° 50.11° Asphalt 0 ft / 0 m 0 ft / 0 m
07 197 ft / 60 m 8,176 ft / 2,492 m 67.40° 70.88° Asphalt 0 ft / 0 m 176 ft / 54 m
23 148 ft / 45 m 12,153 ft / 3,704 m 226.62° 230.10° Asphalt 500 ft / 152 m 0 ft / 0 m
25 197 ft / 60 m 8,176 ft / 2,492 m 247.40° 250.88° Asphalt 0 ft / 0 m 0 ft / 0 m

FOOL

Details ICAO FOOL (LBV)
Name Leon M Ba
Region Gabon
Timezone Africa/Libreville (UTC+1.0)
Stats Elevation 39 ft / 12 m (AMSL)
Location 0.458616° 9.412250°
Runways 1
Magnetic Variation 1.938° W

METAR

FOOL 110000Z 02003KT 240V040 7000 TSRA FEW006 FEW016CB 23/22 Q1012 TEMPO 0700 +TSRA

Decode

TAF

TAF FOOL 102300Z 1100/1206 22007KT 9999 SCT011 FEW020CB BKN033 TEMPO 1100/1104 3000 TSRA BKN008 FEW016CB OVC026 PROB30 TEMPO 1122/1203 2500 TSRA BKN006 FEW016CB OVC020

Decode

Destination Runways

ID Width Length Bearing (true) Bearing (mag) Surface Threshold Offset Overrun Length
16 148 ft / 45 m 9,889 ft / 3,014 m 154.19° 156.13° Asphalt 0 ft / 0 m 192 ft / 59 m
34 148 ft / 45 m 9,889 ft / 3,014 m 334.19° 336.13° Asphalt 0 ft / 0 m 209 ft / 64 m

Approach Navaids

Runway Type Ident Frequency Range Bearing (true) Bearing (mag) Slope Elevation
16 Localiser LB 109.50 MHz 18 nm / 33 km 155.78° 157.71° - 39 ft / 12 m (AMSL)
16 Glidescope LB 109.50 MHz 10 nm / 19 km 154.19° 156.13° 3.00° 54 ft / 16 m (AMSL)
16 DME LB 109.50 MHz 18 nm / 33 km - - - 39 ft / 12 m (AMSL)

Popular Alternatives